createdAt,value
2023-04-01T00:07:15.362Z,99262.78
2023-04-01T00:14:49.211Z,99256.56
2023-04-01T00:22:25.001Z,99272.56
2023-04-01T00:29:59.009Z,99269.03
2023-04-01T00:37:37.910Z,99261.03
2023-04-01T00:45:34.187Z,99262.81
2023-04-01T00:53:10.713Z,99260.16
2023-04-01T01:00:45.322Z,99261.03
2023-04-01T01:08:33.067Z,99254.84
2023-04-01T01:16:13.405Z,99264.59
2023-04-01T01:24:15.939Z,99269.06
2023-04-01T01:31:59.038Z,99268.16
2023-04-01T01:39:36.994Z,99270.84
2023-04-01T01:47:11.641Z,99271.75
2023-04-01T01:54:51.468Z,99263.78
2023-04-01T02:02:27.354Z,99269.97
2023-04-01T02:10:03.467Z,99273.53
2023-04-01T02:17:42.345Z,99276.22
2023-04-01T02:25:22.842Z,99274.44
2023-04-01T02:32:57.865Z,99277.13
2023-04-01T02:40:44.225Z,99281.56
2023-04-01T02:48:18.177Z,99289.56
2023-04-01T02:55:53.523Z,99300.25
2023-04-01T03:03:27.591Z,99300.25
2023-04-01T03:11:03.735Z,99302.00
2023-04-01T03:26:30.292Z,99307.34
2023-04-01T03:41:57.128Z,99315.41
2023-04-01T03:49:33.174Z,99324.28
2023-04-01T03:57:27.514Z,99330.53
2023-04-01T04:05:01.557Z,99337.63
2023-04-01T04:12:36.875Z,99343.84
2023-04-01T04:20:11.411Z,99341.19
2023-04-01T04:27:46.666Z,99343.84
2023-04-01T04:35:20.485Z,99355.41
2023-04-01T04:42:56.008Z,99361.59
2023-04-01T04:50:29.934Z,99361.59
2023-04-01T04:58:05.073Z,99366.94
2023-04-01T05:05:39.039Z,99371.38
2023-04-01T05:13:14.350Z,99374.94
2023-04-01T05:20:49.891Z,99377.59
2023-04-01T05:28:25.302Z,99383.81
2023-04-01T05:36:07.237Z,99386.47
2023-04-01T05:43:42.929Z,99394.47
2023-04-01T05:51:17.587Z,99397.13
2023-04-01T05:58:55.614Z,99406.88
2023-04-01T06:06:33.035Z,99410.41
2023-04-01T06:14:19.814Z,99421.94
2023-04-01T06:22:19.322Z,99427.22
2023-04-01T06:30:08.456Z,99437.88
2023-04-01T06:38:03.407Z,99433.38
2023-04-01T06:45:44.880Z,99444.06
2023-04-01T06:53:23.850Z,99439.56
2023-04-01T07:01:03.929Z,99452.81
2023-04-01T07:08:42.142Z,99444.78
2023-04-01T07:16:21.830Z,99449.19
2023-04-01T07:23:59.113Z,99454.47
2023-04-01T07:31:54.202Z,99461.53
2023-04-01T07:39:39.344Z,99463.28
2023-04-01T07:47:35.608Z,99468.63
2023-04-01T07:55:17.106Z,99476.63
2023-04-01T08:03:10.240Z,99481.03
2023-04-01T08:10:52.681Z,99485.41
2023-04-01T08:18:43.951Z,99492.53
2023-04-01T08:26:25.590Z,99497.72
2023-04-01T08:34:05.929Z,99499.44
2023-04-01T08:42:06.732Z,99502.88
2023-04-01T08:50:01.946Z,99509.91
2023-04-01T08:57:46.876Z,99509.16
2023-04-01T09:05:32.191Z,99516.22
2023-04-01T09:13:29.154Z,99526.84
2023-04-01T09:29:43.314Z,99530.47
2023-04-01T09:37:23.595Z,99557.13
2023-04-01T09:45:01.050Z,99563.53
2023-04-01T09:52:48.982Z,99571.69
2023-04-01T10:00:40.380Z,99585.13
2023-04-01T10:08:39.528Z,99593.25
2023-04-01T10:16:46.701Z,99595.03
2023-04-01T10:24:54.703Z,99599.50
2023-04-01T10:32:58.839Z,99598.66
2023-04-01T10:41:03.366Z,99611.16
2023-04-01T10:49:28.028Z,99613.88
2023-04-01T10:57:10.998Z,99622.78
2023-04-01T11:05:02.698Z,99636.13
2023-04-01T11:13:21.369Z,99647.66
2023-04-01T11:21:26.608Z,99657.44
2023-04-01T11:29:16.262Z,99660.13
2023-04-01T11:37:03.462Z,99661.03
2023-04-01T11:44:47.472Z,99677.03
2023-04-01T11:52:36.840Z,99685.03
2023-04-01T12:00:35.395Z,99693.88
2023-04-01T12:08:22.495Z,99695.69
2023-04-01T12:16:28.341Z,99710.78
2023-04-01T12:24:22.825Z,99717.00
2023-04-01T12:32:04.768Z,99722.31
2023-04-01T12:48:17.286Z,99736.50
2023-04-01T12:55:53.593Z,99745.38
2023-04-01T13:03:47.022Z,99758.66
2023-04-01T13:11:26.234Z,99767.59
2023-04-01T13:27:08.205Z,99796.84
2023-04-01T13:34:56.459Z,99806.53
2023-04-01T13:42:36.412Z,99814.44
2023-04-01T13:50:34.748Z,99818.75
2023-04-01T13:58:41.231Z,99829.41
2023-04-01T14:06:33.409Z,99834.66
2023-04-01T14:14:18.626Z,99842.50
2023-04-01T14:21:59.224Z,99859.28
2023-04-01T14:29:40.791Z,99872.56
2023-04-01T14:37:41.550Z,99880.50
2023-04-01T14:45:36.815Z,99882.19
2023-04-01T14:53:18.645Z,99904.31
2023-04-01T15:01:16.172Z,99911.28
2023-04-01T15:08:59.914Z,99928.97
2023-04-01T15:16:42.045Z,99937.75
2023-04-01T15:24:23.563Z,99946.53
2023-04-01T15:40:04.459Z,99961.38
2023-04-01T15:47:44.974Z,99976.41
2023-04-01T15:55:32.943Z,99984.38
2023-04-01T16:03:21.472Z,99994.03
2023-04-01T16:11:11.051Z,99996.72
2023-04-01T16:19:05.581Z,100008.16
2023-04-01T16:34:48.851Z,100039.00
2023-04-01T16:42:33.182Z,100050.41
2023-04-01T16:50:16.786Z,100065.94
2023-04-01T16:57:54.424Z,100083.38
2023-04-01T17:05:42.271Z,100100.25
2023-04-01T17:13:37.079Z,100113.19
2023-04-01T17:29:17.350Z,100146.56
2023-04-01T17:37:03.744Z,100165.88
2023-04-01T17:44:51.738Z,100176.00
2023-04-01T17:52:31.519Z,100192.59
2023-04-01T18:00:23.005Z,100195.88
2023-04-01T18:08:16.445Z,100229.09
2023-04-01T18:16:04.859Z,100246.44
2023-04-01T18:23:52.103Z,100250.03
2023-04-01T18:31:37.354Z,100267.47
2023-04-01T18:39:17.846Z,100280.59
2023-04-01T18:47:02.166Z,100300.56
2023-04-01T18:54:48.228Z,100311.13
2023-04-01T19:02:32.006Z,100322.44
2023-04-01T19:10:18.859Z,100331.41
2023-04-01T19:18:11.107Z,100342.63
2023-04-01T19:25:51.820Z,100352.25
2023-04-01T19:33:41.342Z,100364.50
2023-04-01T19:41:27.645Z,100378.38
2023-04-01T19:49:17.609Z,100397.78
2023-04-01T19:56:57.933Z,100414.88
2023-04-01T20:04:38.338Z,100429.63
2023-04-01T20:12:21.086Z,100435.72
2023-04-01T20:20:01.511Z,100454.72
2023-04-01T20:27:42.030Z,100465.09
2023-04-01T20:35:29.327Z,100480.22
2023-04-01T20:43:25.463Z,100487.25
2023-04-01T20:51:05.832Z,100499.56
2023-04-01T20:58:54.030Z,100522.16
2023-04-01T21:06:50.694Z,100528.91
2023-04-01T21:14:48.730Z,100533.09
2023-04-01T21:22:52.559Z,100551.16
2023-04-01T21:30:50.642Z,100557.31
2023-04-01T21:38:46.201Z,100589.34
2023-04-01T21:47:02.962Z,100608.00
2023-04-01T22:03:47.019Z,100627.31
2023-04-01T22:11:33.525Z,100639.72
2023-04-01T22:19:21.024Z,100642.03
2023-04-01T22:27:02.176Z,100655.53
2023-04-01T22:34:45.636Z,100661.72
2023-04-01T22:42:37.098Z,100680.22
2023-04-01T22:50:21.666Z,100694.56
2023-04-01T22:58:01.726Z,100692.00
2023-04-01T23:05:41.574Z,100709.47
2023-04-01T23:13:20.850Z,100716.44
2023-04-01T23:21:16.810Z,100726.94
2023-04-01T23:28:53.691Z,100740.78
2023-04-01T23:36:29.738Z,100748.75
2023-04-01T23:44:07.074Z,100755.59
2023-04-01T23:51:52.597Z,100764.25
2023-04-01T23:59:31.355Z,100785.81
